sensor_id;sensor_type;location;lat;lon;timestamp;P1;durP1;ratioP1;P2;durP2;ratioP2
34836;SDS011;21053;50.848;4.652;2023-02-28T00:00:49;19.60;;;7.93;;
34836;SDS011;21053;50.848;4.652;2023-02-28T00:03:15;17.77;;;8.13;;
34836;SDS011;21053;50.848;4.652;2023-02-28T00:14:25;15.98;;;7.65;;
34836;SDS011;21053;50.848;4.652;2023-02-28T00:16:50;18.13;;;7.03;;
34836;SDS011;21053;50.848;4.652;2023-02-28T00:19:18;18.13;;;7.38;;
34836;SDS011;21053;50.848;4.652;2023-02-28T00:21:44;17.23;;;7.07;;
34836;SDS011;21053;50.848;4.652;2023-02-28T00:24:09;15.25;;;7.70;;
34836;SDS011;21053;50.848;4.652;2023-02-28T00:26:36;12.55;;;6.82;;
34836;SDS011;21053;50.848;4.652;2023-02-28T00:29:05;14.23;;;7.00;;
34836;SDS011;21053;50.848;4.652;2023-02-28T00:31:31;18.55;;;7.38;;
34836;SDS011;21053;50.848;4.652;2023-02-28T00:33:59;16.45;;;7.05;;
34836;SDS011;21053;50.848;4.652;2023-02-28T00:36:26;20.23;;;6.95;;
34836;SDS011;21053;50.848;4.652;2023-02-28T00:38:52;18.05;;;6.95;;
34836;SDS011;21053;50.848;4.652;2023-02-28T00:41:18;12.98;;;6.15;;
34836;SDS011;21053;50.848;4.652;2023-02-28T00:43:45;17.42;;;6.90;;
34836;SDS011;21053;50.848;4.652;2023-02-28T00:46:10;12.43;;;5.78;;
34836;SDS011;21053;50.848;4.652;2023-02-28T00:48:39;15.40;;;7.30;;
34836;SDS011;21053;50.848;4.652;2023-02-28T00:51:06;17.65;;;6.60;;
34836;SDS011;21053;50.848;4.652;2023-02-28T00:53:33;18.20;;;6.82;;
34836;SDS011;21053;50.848;4.652;2023-02-28T00:55:59;15.60;;;6.80;;
34836;SDS011;21053;50.848;4.652;2023-02-28T00:58:28;13.95;;;6.45;;
34836;SDS011;21053;50.848;4.652;2023-02-28T01:00:54;13.52;;;6.72;;
34836;SDS011;21053;50.848;4.652;2023-02-28T01:03:20;12.13;;;6.30;;
34836;SDS011;21053;50.848;4.652;2023-02-28T01:05:48;17.77;;;7.38;;
34836;SDS011;21053;50.848;4.652;2023-02-28T01:10:45;15.95;;;6.82;;
34836;SDS011;21053;50.848;4.652;2023-02-28T01:13:11;15.55;;;6.85;;
34836;SDS011;21053;50.848;4.652;2023-02-28T01:15:39;12.55;;;6.07;;
34836;SDS011;21053;50.848;4.652;2023-02-28T01:18:08;15.77;;;7.05;;
34836;SDS011;21053;50.848;4.652;2023-02-28T01:20:38;23.42;;;6.82;;
34836;SDS011;21053;50.848;4.652;2023-02-28T01:23:05;15.35;;;6.35;;
34836;SDS011;21053;50.848;4.652;2023-02-28T01:25:37;11.73;;;6.80;;
34836;SDS011;21053;50.848;4.652;2023-02-28T01:28:04;24.33;;;7.18;;
34836;SDS011;21053;50.848;4.652;2023-02-28T01:30:32;18.58;;;6.78;;
34836;SDS011;21053;50.848;4.652;2023-02-28T01:32:59;16.92;;;6.70;;
34836;SDS011;21053;50.848;4.652;2023-02-28T01:35:25;14.32;;;6.90;;
34836;SDS011;21053;50.848;4.652;2023-02-28T01:37:51;11.88;;;7.32;;
34836;SDS011;21053;50.848;4.652;2023-02-28T01:40:17;16.55;;;7.38;;
34836;SDS011;21053;50.848;4.652;2023-02-28T01:42:43;17.67;;;6.68;;
34836;SDS011;21053;50.848;4.652;2023-02-28T01:45:28;18.85;;;7.88;;
34836;SDS011;21053;50.848;4.652;2023-02-28T01:50:34;17.55;;;7.20;;
34836;SDS011;21053;50.848;4.652;2023-02-28T01:53:06;20.23;;;7.43;;
34836;SDS011;21053;50.848;4.652;2023-02-28T01:55:37;18.83;;;7.35;;
34836;SDS011;21053;50.848;4.652;2023-02-28T01:58:07;26.00;;;8.27;;
34836;SDS011;21053;50.848;4.652;2023-02-28T02:00:34;16.67;;;7.38;;
34836;SDS011;21053;50.848;4.652;2023-02-28T02:03:05;15.50;;;7.43;;
34836;SDS011;21053;50.848;4.652;2023-02-28T02:06:40;15.75;;;7.20;;
34836;SDS011;21053;50.848;4.652;2023-02-28T02:09:10;20.95;;;7.43;;
34836;SDS011;21053;50.848;4.652;2023-02-28T02:11:39;16.25;;;7.45;;
34836;SDS011;21053;50.848;4.652;2023-02-28T02:36:39;15.85;;;7.40;;
34836;SDS011;21053;50.848;4.652;2023-02-28T02:39:21;13.18;;;7.15;;
34836;SDS011;21053;50.848;4.652;2023-02-28T02:42:03;16.38;;;7.75;;
34836;SDS011;21053;50.848;4.652;2023-02-28T02:47:16;16.70;;;7.45;;
34836;SDS011;21053;50.848;4.652;2023-02-28T02:49:49;18.42;;;7.68;;
34836;SDS011;21053;50.848;4.652;2023-02-28T02:54:54;17.77;;;7.70;;
34836;SDS011;21053;50.848;4.652;2023-02-28T02:58:04;20.98;;;6.90;;
34836;SDS011;21053;50.848;4.652;2023-02-28T03:00:17;19.17;;;7.05;;
34836;SDS011;21053;50.848;4.652;2023-02-28T03:02:48;13.13;;;7.20;;
34836;SDS011;21053;50.848;4.652;2023-02-28T03:05:19;15.95;;;7.50;;
34836;SDS011;21053;50.848;4.652;2023-02-28T03:07:49;18.08;;;7.05;;
34836;SDS011;21053;50.848;4.652;2023-02-28T03:13:43;14.48;;;7.72;;
34836;SDS011;21053;50.848;4.652;2023-02-28T03:18:32;14.77;;;7.65;;
34836;SDS011;21053;50.848;4.652;2023-02-28T03:21:30;16.42;;;7.20;;
34836;SDS011;21053;50.848;4.652;2023-02-28T03:33:14;18.58;;;8.00;;
34836;SDS011;21053;50.848;4.652;2023-02-28T03:35:48;17.10;;;7.80;;
34836;SDS011;21053;50.848;4.652;2023-02-28T03:38:20;16.37;;;7.57;;
34836;SDS011;21053;50.848;4.652;2023-02-28T03:41:10;17.27;;;7.45;;
34836;SDS011;21053;50.848;4.652;2023-02-28T03:43:49;18.70;;;8.10;;
34836;SDS011;21053;50.848;4.652;2023-02-28T03:46:23;19.55;;;7.78;;
34836;SDS011;21053;50.848;4.652;2023-02-28T03:49:10;22.60;;;7.90;;
34836;SDS011;21053;50.848;4.652;2023-02-28T03:51:44;13.82;;;7.70;;
34836;SDS011;21053;50.848;4.652;2023-02-28T03:55:12;19.73;;;8.40;;
34836;SDS011;21053;50.848;4.652;2023-02-28T03:59:59;13.43;;;8.10;;
34836;SDS011;21053;50.848;4.652;2023-02-28T04:02:41;15.07;;;7.78;;
34836;SDS011;21053;50.848;4.652;2023-02-28T04:05:07;15.70;;;8.43;;
34836;SDS011;21053;50.848;4.652;2023-02-28T04:07:34;16.95;;;8.45;;
34836;SDS011;21053;50.848;4.652;2023-02-28T04:10:01;17.50;;;8.45;;
34836;SDS011;21053;50.848;4.652;2023-02-28T04:12:28;17.98;;;8.77;;
34836;SDS011;21053;50.848;4.652;2023-02-28T04:14:53;18.63;;;9.38;;
34836;SDS011;21053;50.848;4.652;2023-02-28T04:17:22;19.63;;;8.77;;
34836;SDS011;21053;50.848;4.652;2023-02-28T04:19:49;17.17;;;9.32;;
34836;SDS011;21053;50.848;4.652;2023-02-28T04:24:44;16.55;;;8.68;;
34836;SDS011;21053;50.848;4.652;2023-02-28T04:27:16;17.48;;;7.60;;
34836;SDS011;21053;50.848;4.652;2023-02-28T04:29:42;20.30;;;8.45;;
34836;SDS011;21053;50.848;4.652;2023-02-28T04:32:09;15.10;;;7.95;;
34836;SDS011;21053;50.848;4.652;2023-02-28T04:34:35;15.93;;;8.57;;
34836;SDS011;21053;50.848;4.652;2023-02-28T04:37:01;19.08;;;8.55;;
34836;SDS011;21053;50.848;4.652;2023-02-28T04:39:34;15.82;;;8.35;;
34836;SDS011;21053;50.848;4.652;2023-02-28T04:42:02;22.65;;;8.88;;
34836;SDS011;21053;50.848;4.652;2023-02-28T04:44:28;18.35;;;9.00;;
34836;SDS011;21053;50.848;4.652;2023-02-28T04:46:54;23.27;;;9.98;;
34836;SDS011;21053;50.848;4.652;2023-02-28T04:49:21;24.02;;;11.23;;
34836;SDS011;21053;50.848;4.652;2023-02-28T04:51:47;21.42;;;10.88;;
34836;SDS011;21053;50.848;4.652;2023-02-28T04:54:16;22.40;;;10.45;;
34836;SDS011;21053;50.848;4.652;2023-02-28T04:56:43;21.98;;;10.77;;
34836;SDS011;21053;50.848;4.652;2023-02-28T04:59:09;25.85;;;10.18;;
34836;SDS011;21053;50.848;4.652;2023-02-28T05:01:36;28.80;;;11.18;;
34836;SDS011;21053;50.848;4.652;2023-02-28T05:04:04;25.17;;;10.57;;
34836;SDS011;21053;50.848;4.652;2023-02-28T05:06:32;29.15;;;10.55;;
34836;SDS011;21053;50.848;4.652;2023-02-28T05:08:59;22.60;;;10.77;;
34836;SDS011;21053;50.848;4.652;2023-02-28T05:11:29;18.02;;;10.32;;
34836;SDS011;21053;50.848;4.652;2023-02-28T05:14:00;25.60;;;10.15;;
34836;SDS011;21053;50.848;4.652;2023-02-28T05:16:30;19.63;;;10.02;;
34836;SDS011;21053;50.848;4.652;2023-02-28T05:18:59;19.30;;;10.45;;
34836;SDS011;21053;50.848;4.652;2023-02-28T05:21:35;23.02;;;10.93;;
34836;SDS011;21053;50.848;4.652;2023-02-28T05:24:10;25.17;;;11.55;;
34836;SDS011;21053;50.848;4.652;2023-02-28T05:26:37;36.58;;;11.45;;
34836;SDS011;21053;50.848;4.652;2023-02-28T05:29:05;30.13;;;12.02;;
34836;SDS011;21053;50.848;4.652;2023-02-28T05:31:32;32.92;;;12.07;;
34836;SDS011;21053;50.848;4.652;2023-02-28T05:33:58;28.75;;;11.55;;
34836;SDS011;21053;50.848;4.652;2023-02-28T05:36:24;21.00;;;11.18;;
34836;SDS011;21053;50.848;4.652;2023-02-28T05:38:52;23.50;;;11.63;;
34836;SDS011;21053;50.848;4.652;2023-02-28T05:41:19;35.00;;;12.27;;
34836;SDS011;21053;50.848;4.652;2023-02-28T05:43:46;34.63;;;13.20;;
34836;SDS011;21053;50.848;4.652;2023-02-28T05:46:13;26.52;;;12.52;;
34836;SDS011;21053;50.848;4.652;2023-02-28T05:48:40;28.88;;;13.23;;
34836;SDS011;21053;50.848;4.652;2023-02-28T05:51:07;25.05;;;13.18;;
34836;SDS011;21053;50.848;4.652;2023-02-28T05:53:33;28.98;;;13.50;;
34836;SDS011;21053;50.848;4.652;2023-02-28T05:56:09;30.50;;;13.18;;
34836;SDS011;21053;50.848;4.652;2023-02-28T05:58:36;27.48;;;14.43;;
34836;SDS011;21053;50.848;4.652;2023-02-28T06:03:55;26.63;;;12.85;;
34836;SDS011;21053;50.848;4.652;2023-02-28T06:06:21;29.35;;;13.05;;
34836;SDS011;21053;50.848;4.652;2023-02-28T06:08:49;34.30;;;13.57;;
34836;SDS011;21053;50.848;4.652;2023-02-28T06:11:15;22.20;;;12.45;;
34836;SDS011;21053;50.848;4.652;2023-02-28T06:13:44;26.42;;;12.77;;
34836;SDS011;21053;50.848;4.652;2023-02-28T06:16:11;27.55;;;13.07;;
34836;SDS011;21053;50.848;4.652;2023-02-28T06:18:37;24.73;;;12.82;;
34836;SDS011;21053;50.848;4.652;2023-02-28T06:21:06;26.27;;;12.90;;
34836;SDS011;21053;50.848;4.652;2023-02-28T06:23:31;30.48;;;13.23;;
34836;SDS011;21053;50.848;4.652;2023-02-28T06:25:59;30.08;;;13.15;;
34836;SDS011;21053;50.848;4.652;2023-02-28T06:28:28;28.20;;;13.10;;
34836;SDS011;21053;50.848;4.652;2023-02-28T06:30:55;28.45;;;11.88;;
34836;SDS011;21053;50.848;4.652;2023-02-28T06:33:21;28.00;;;12.65;;
34836;SDS011;21053;50.848;4.652;2023-02-28T06:35:52;22.98;;;12.73;;
34836;SDS011;21053;50.848;4.652;2023-02-28T06:38:19;28.50;;;13.55;;
34836;SDS011;21053;50.848;4.652;2023-02-28T06:43:21;26.42;;;12.90;;
34836;SDS011;21053;50.848;4.652;2023-02-28T06:45:53;30.63;;;13.32;;
34836;SDS011;21053;50.848;4.652;2023-02-28T06:48:22;24.42;;;12.68;;
34836;SDS011;21053;50.848;4.652;2023-02-28T06:50:51;31.23;;;12.88;;
34836;SDS011;21053;50.848;4.652;2023-02-28T06:53:20;35.28;;;13.00;;
34836;SDS011;21053;50.848;4.652;2023-02-28T06:55:47;27.38;;;12.93;;
34836;SDS011;21053;50.848;4.652;2023-02-28T06:58:14;35.85;;;13.10;;
34836;SDS011;21053;50.848;4.652;2023-02-28T07:00:43;28.55;;;13.10;;
34836;SDS011;21053;50.848;4.652;2023-02-28T07:03:11;37.13;;;13.55;;
34836;SDS011;21053;50.848;4.652;2023-02-28T07:05:39;35.75;;;12.77;;
34836;SDS011;21053;50.848;4.652;2023-02-28T07:08:05;33.00;;;13.18;;
34836;SDS011;21053;50.848;4.652;2023-02-28T07:10:32;29.75;;;12.93;;
34836;SDS011;21053;50.848;4.652;2023-02-28T07:12:58;30.85;;;12.48;;
34836;SDS011;21053;50.848;4.652;2023-02-28T07:15:26;26.75;;;13.18;;
34836;SDS011;21053;50.848;4.652;2023-02-28T07:17:55;29.33;;;11.88;;
34836;SDS011;21053;50.848;4.652;2023-02-28T07:20:21;24.75;;;12.70;;
34836;SDS011;21053;50.848;4.652;2023-02-28T07:22:48;24.25;;;12.20;;
34836;SDS011;21053;50.848;4.652;2023-02-28T07:25:23;31.25;;;11.63;;
34836;SDS011;21053;50.848;4.652;2023-02-28T07:27:53;25.50;;;11.65;;
34836;SDS011;21053;50.848;4.652;2023-02-28T07:30:21;20.50;;;11.20;;
34836;SDS011;21053;50.848;4.652;2023-02-28T07:32:47;21.13;;;10.77;;
34836;SDS011;21053;50.848;4.652;2023-02-28T07:35:14;18.35;;;10.70;;
34836;SDS011;21053;50.848;4.652;2023-02-28T07:37:46;24.42;;;11.52;;
34836;SDS011;21053;50.848;4.652;2023-02-28T07:41:54;23.65;;;11.27;;
34836;SDS011;21053;50.848;4.652;2023-02-28T07:44:21;27.98;;;11.30;;
34836;SDS011;21053;50.848;4.652;2023-02-28T07:46:48;25.10;;;11.07;;
34836;SDS011;21053;50.848;4.652;2023-02-28T07:51:43;27.20;;;10.45;;
34836;SDS011;21053;50.848;4.652;2023-02-28T07:54:09;26.77;;;11.23;;
34836;SDS011;21053;50.848;4.652;2023-02-28T07:56:35;23.85;;;10.07;;
34836;SDS011;21053;50.848;4.652;2023-02-28T07:59:00;23.35;;;9.30;;
34836;SDS011;21053;50.848;4.652;2023-02-28T08:03:56;30.65;;;9.77;;
34836;SDS011;21053;50.848;4.652;2023-02-28T08:06:23;20.95;;;9.43;;
34836;SDS011;21053;50.848;4.652;2023-02-28T08:08:50;24.73;;;9.10;;
34836;SDS011;21053;50.848;4.652;2023-02-28T08:11:19;20.27;;;9.02;;
34836;SDS011;21053;50.848;4.652;2023-02-28T08:13:47;17.98;;;7.88;;
34836;SDS011;21053;50.848;4.652;2023-02-28T08:16:16;17.75;;;8.13;;
34836;SDS011;21053;50.848;4.652;2023-02-28T08:18:46;19.40;;;7.47;;
34836;SDS011;21053;50.848;4.652;2023-02-28T08:21:15;17.92;;;8.05;;
34836;SDS011;21053;50.848;4.652;2023-02-28T08:23:42;25.45;;;8.70;;
34836;SDS011;21053;50.848;4.652;2023-02-28T08:26:11;15.32;;;6.72;;
34836;SDS011;21053;50.848;4.652;2023-02-28T08:28:37;19.63;;;7.80;;
34836;SDS011;21053;50.848;4.652;2023-02-28T08:31:08;15.60;;;6.95;;
34836;SDS011;21053;50.848;4.652;2023-02-28T08:36:05;17.25;;;7.40;;
34836;SDS011;21053;50.848;4.652;2023-02-28T08:38:32;20.80;;;7.38;;
34836;SDS011;21053;50.848;4.652;2023-02-28T08:41:10;21.83;;;7.53;;
34836;SDS011;21053;50.848;4.652;2023-02-28T08:43:39;15.50;;;6.63;;
34836;SDS011;21053;50.848;4.652;2023-02-28T08:46:06;13.95;;;6.53;;
34836;SDS011;21053;50.848;4.652;2023-02-28T08:48:35;13.60;;;6.03;;
34836;SDS011;21053;50.848;4.652;2023-02-28T08:51:15;13.32;;;6.70;;
34836;SDS011;21053;50.848;4.652;2023-02-28T08:58:45;14.88;;;6.63;;
34836;SDS011;21053;50.848;4.652;2023-02-28T09:01:19;20.15;;;6.28;;
34836;SDS011;21053;50.848;4.652;2023-02-28T09:03:47;12.95;;;5.95;;
34836;SDS011;21053;50.848;4.652;2023-02-28T09:06:15;14.93;;;6.10;;
34836;SDS011;21053;50.848;4.652;2023-02-28T09:08:42;10.80;;;5.85;;
34836;SDS011;21053;50.848;4.652;2023-02-28T09:11:10;12.02;;;5.53;;
34836;SDS011;21053;50.848;4.652;2023-02-28T09:13:37;11.90;;;4.38;;
34836;SDS011;21053;50.848;4.652;2023-02-28T09:16:10;11.77;;;5.65;;
34836;SDS011;21053;50.848;4.652;2023-02-28T09:18:44;11.93;;;5.43;;
34836;SDS011;21053;50.848;4.652;2023-02-28T09:21:13;10.10;;;5.03;;
34836;SDS011;21053;50.848;4.652;2023-02-28T09:23:42;11.45;;;5.43;;
34836;SDS011;21053;50.848;4.652;2023-02-28T09:26:14;9.35;;;5.20;;
34836;SDS011;21053;50.848;4.652;2023-02-28T09:28:42;11.02;;;5.15;;
34836;SDS011;21053;50.848;4.652;2023-02-28T09:31:14;15.40;;;4.57;;
34836;SDS011;21053;50.848;4.652;2023-02-28T09:33:47;8.80;;;4.30;;
34836;SDS011;21053;50.848;4.652;2023-02-28T09:36:17;11.80;;;4.90;;
34836;SDS011;21053;50.848;4.652;2023-02-28T09:38:45;9.45;;;4.32;;
34836;SDS011;21053;50.848;4.652;2023-02-28T09:41:20;11.20;;;4.00;;
34836;SDS011;21053;50.848;4.652;2023-02-28T09:49:12;7.30;;;4.10;;
34836;SDS011;21053;50.848;4.652;2023-02-28T09:57:55;14.82;;;4.03;;
34836;SDS011;21053;50.848;4.652;2023-02-28T10:00:34;8.48;;;3.20;;
34836;SDS011;21053;50.848;4.652;2023-02-28T10:06:21;12.75;;;2.88;;
34836;SDS011;21053;50.848;4.652;2023-02-28T10:09:00;10.13;;;2.97;;
34836;SDS011;21053;50.848;4.652;2023-02-28T10:14:00;4.38;;;2.83;;
34836;SDS011;21053;50.848;4.652;2023-02-28T10:19:59;3.13;;;2.40;;
34836;SDS011;21053;50.848;4.652;2023-02-28T10:23:17;6.03;;;2.92;;
34836;SDS011;21053;50.848;4.652;2023-02-28T10:28:24;5.03;;;3.35;;
34836;SDS011;21053;50.848;4.652;2023-02-28T10:30:52;10.73;;;3.13;;
34836;SDS011;21053;50.848;4.652;2023-02-28T10:33:30;4.75;;;2.90;;
34836;SDS011;21053;50.848;4.652;2023-02-28T10:36:02;6.18;;;3.20;;
34836;SDS011;21053;50.848;4.652;2023-02-28T10:38:35;3.55;;;2.50;;
34836;SDS011;21053;50.848;4.652;2023-02-28T10:41:04;6.28;;;2.83;;
34836;SDS011;21053;50.848;4.652;2023-02-28T10:43:41;4.22;;;2.42;;
34836;SDS011;21053;50.848;4.652;2023-02-28T10:46:13;3.83;;;2.00;;
34836;SDS011;21053;50.848;4.652;2023-02-28T10:51:39;4.22;;;2.45;;
34836;SDS011;21053;50.848;4.652;2023-02-28T10:54:13;4.05;;;2.13;;
34836;SDS011;21053;50.848;4.652;2023-02-28T10:57:04;5.30;;;2.35;;
34836;SDS011;21053;50.848;4.652;2023-02-28T11:10:58;8.60;;;2.80;;
34836;SDS011;21053;50.848;4.652;2023-02-28T11:13:28;5.05;;;2.47;;
34836;SDS011;21053;50.848;4.652;2023-02-28T11:16:02;8.65;;;2.55;;
34836;SDS011;21053;50.848;4.652;2023-02-28T11:21:22;3.95;;;2.17;;
34836;SDS011;21053;50.848;4.652;2023-02-28T11:29:27;5.00;;;2.35;;
34836;SDS011;21053;50.848;4.652;2023-02-28T11:32:05;3.80;;;2.35;;
34836;SDS011;21053;50.848;4.652;2023-02-28T11:34:34;2.85;;;2.10;;
34836;SDS011;21053;50.848;4.652;2023-02-28T11:39:34;3.95;;;2.13;;
34836;SDS011;21053;50.848;4.652;2023-02-28T11:52:56;3.70;;;2.15;;
34836;SDS011;21053;50.848;4.652;2023-02-28T11:55:35;3.00;;;2.00;;
34836;SDS011;21053;50.848;4.652;2023-02-28T12:01:07;2.92;;;1.95;;
34836;SDS011;21053;50.848;4.652;2023-02-28T12:04:17;2.75;;;2.08;;
34836;SDS011;21053;50.848;4.652;2023-02-28T12:09:52;5.63;;;2.38;;
34836;SDS011;21053;50.848;4.652;2023-02-28T12:12:47;5.32;;;2.35;;
34836;SDS011;21053;50.848;4.652;2023-02-28T12:21:01;3.53;;;2.00;;
34836;SDS011;21053;50.848;4.652;2023-02-28T12:29:19;4.55;;;2.50;;
34836;SDS011;21053;50.848;4.652;2023-02-28T12:34:55;3.47;;;2.40;;
34836;SDS011;21053;50.848;4.652;2023-02-28T12:37:37;5.22;;;2.20;;
34836;SDS011;21053;50.848;4.652;2023-02-28T12:40:16;7.38;;;1.98;;
34836;SDS011;21053;50.848;4.652;2023-02-28T12:42:53;6.63;;;2.20;;
34836;SDS011;21053;50.848;4.652;2023-02-28T12:45:27;7.65;;;2.35;;
34836;SDS011;21053;50.848;4.652;2023-02-28T12:48:03;3.53;;;2.00;;
34836;SDS011;21053;50.848;4.652;2023-02-28T12:50:39;6.03;;;2.22;;
34836;SDS011;21053;50.848;4.652;2023-02-28T12:53:14;7.30;;;2.42;;
34836;SDS011;21053;50.848;4.652;2023-02-28T12:58:52;3.70;;;2.30;;
34836;SDS011;21053;50.848;4.652;2023-02-28T13:01:36;4.43;;;1.95;;
34836;SDS011;21053;50.848;4.652;2023-02-28T13:09:56;3.30;;;2.17;;
34836;SDS011;21053;50.848;4.652;2023-02-28T13:17:55;3.28;;;2.20;;
34836;SDS011;21053;50.848;4.652;2023-02-28T13:20:35;4.30;;;2.25;;
34836;SDS011;21053;50.848;4.652;2023-02-28T13:27:10;2.85;;;2.33;;
34836;SDS011;21053;50.848;4.652;2023-02-28T13:33:36;7.22;;;2.60;;
34836;SDS011;21053;50.848;4.652;2023-02-28T13:36:29;4.07;;;2.60;;
34836;SDS011;21053;50.848;4.652;2023-02-28T13:41:48;8.93;;;2.88;;
34836;SDS011;21053;50.848;4.652;2023-02-28T13:44:20;5.00;;;2.60;;
34836;SDS011;21053;50.848;4.652;2023-02-28T13:49:26;5.20;;;2.63;;
34836;SDS011;21053;50.848;4.652;2023-02-28T14:05:38;3.90;;;2.80;;
34836;SDS011;21053;50.848;4.652;2023-02-28T14:08:16;7.30;;;2.97;;
34836;SDS011;21053;50.848;4.652;2023-02-28T14:10:47;4.57;;;2.83;;
34836;SDS011;21053;50.848;4.652;2023-02-28T14:16:13;4.50;;;3.22;;
34836;SDS011;21053;50.848;4.652;2023-02-28T14:27:49;6.68;;;3.42;;
34836;SDS011;21053;50.848;4.652;2023-02-28T14:37:49;9.05;;;3.35;;
34836;SDS011;21053;50.848;4.652;2023-02-28T14:40:21;4.43;;;3.00;;
34836;SDS011;21053;50.848;4.652;2023-02-28T14:43:00;6.35;;;2.85;;
34836;SDS011;21053;50.848;4.652;2023-02-28T14:45:30;5.97;;;3.22;;
34836;SDS011;21053;50.848;4.652;2023-02-28T14:47:59;4.43;;;2.92;;
34836;SDS011;21053;50.848;4.652;2023-02-28T14:50:29;4.30;;;3.03;;
34836;SDS011;21053;50.848;4.652;2023-02-28T14:53:00;5.60;;;3.10;;
34836;SDS011;21053;50.848;4.652;2023-02-28T14:56:48;5.05;;;3.08;;
34836;SDS011;21053;50.848;4.652;2023-02-28T14:59:24;6.20;;;3.55;;
34836;SDS011;21053;50.848;4.652;2023-02-28T15:02:17;5.75;;;3.08;;
34836;SDS011;21053;50.848;4.652;2023-02-28T15:05:00;4.13;;;3.22;;
34836;SDS011;21053;50.848;4.652;2023-02-28T15:07:45;4.15;;;3.05;;
34836;SDS011;21053;50.848;4.652;2023-02-28T15:10:19;7.25;;;3.10;;
34836;SDS011;21053;50.848;4.652;2023-02-28T15:12:56;5.88;;;3.22;;
34836;SDS011;21053;50.848;4.652;2023-02-28T15:23:29;7.18;;;3.33;;
34836;SDS011;21053;50.848;4.652;2023-02-28T15:25:58;5.13;;;3.50;;
34836;SDS011;21053;50.848;4.652;2023-02-28T15:28:24;6.07;;;3.67;;
34836;SDS011;21053;50.848;4.652;2023-02-28T15:30:52;7.82;;;3.67;;
34836;SDS011;21053;50.848;4.652;2023-02-28T15:33:22;4.28;;;3.10;;
34836;SDS011;21053;50.848;4.652;2023-02-28T15:35:50;9.00;;;3.35;;
34836;SDS011;21053;50.848;4.652;2023-02-28T15:38:23;10.55;;;3.00;;
34836;SDS011;21053;50.848;4.652;2023-02-28T15:40:54;6.30;;;3.28;;
34836;SDS011;21053;50.848;4.652;2023-02-28T15:43:32;10.68;;;3.60;;
34836;SDS011;21053;50.848;4.652;2023-02-28T15:46:11;4.68;;;3.58;;
34836;SDS011;21053;50.848;4.652;2023-02-28T15:48:53;9.07;;;3.57;;
34836;SDS011;21053;50.848;4.652;2023-02-28T15:51:25;6.82;;;3.33;;
34836;SDS011;21053;50.848;4.652;2023-02-28T15:54:01;4.18;;;3.38;;
34836;SDS011;21053;50.848;4.652;2023-02-28T15:59:20;5.20;;;3.33;;
34836;SDS011;21053;50.848;4.652;2023-02-28T16:02:02;5.78;;;3.15;;
34836;SDS011;21053;50.848;4.652;2023-02-28T16:05:01;9.02;;;3.65;;
34836;SDS011;21053;50.848;4.652;2023-02-28T16:07:36;7.78;;;3.53;;
34836;SDS011;21053;50.848;4.652;2023-02-28T16:10:07;7.63;;;3.70;;
34836;SDS011;21053;50.848;4.652;2023-02-28T16:12:36;5.30;;;3.50;;
34836;SDS011;21053;50.848;4.652;2023-02-28T16:15:08;5.60;;;3.17;;
34836;SDS011;21053;50.848;4.652;2023-02-28T16:17:45;5.63;;;3.10;;
34836;SDS011;21053;50.848;4.652;2023-02-28T16:20:16;6.60;;;3.90;;
34836;SDS011;21053;50.848;4.652;2023-02-28T16:22:49;6.35;;;3.40;;
34836;SDS011;21053;50.848;4.652;2023-02-28T16:25:19;10.63;;;3.40;;
34836;SDS011;21053;50.848;4.652;2023-02-28T16:30:27;9.02;;;3.60;;
34836;SDS011;21053;50.848;4.652;2023-02-28T16:32:58;5.60;;;3.10;;
34836;SDS011;21053;50.848;4.652;2023-02-28T16:35:24;5.95;;;3.13;;
34836;SDS011;21053;50.848;4.652;2023-02-28T16:37:50;6.63;;;3.40;;
34836;SDS011;21053;50.848;4.652;2023-02-28T16:40:18;9.52;;;3.30;;
34836;SDS011;21053;50.848;4.652;2023-02-28T16:42:48;6.65;;;3.08;;
34836;SDS011;21053;50.848;4.652;2023-02-28T16:45:22;5.50;;;3.28;;
34836;SDS011;21053;50.848;4.652;2023-02-28T16:47:50;11.48;;;3.72;;
34836;SDS011;21053;50.848;4.652;2023-02-28T16:50:19;6.47;;;3.33;;
34836;SDS011;21053;50.848;4.652;2023-02-28T16:52:47;7.30;;;3.58;;
34836;SDS011;21053;50.848;4.652;2023-02-28T16:55:14;7.85;;;3.50;;
34836;SDS011;21053;50.848;4.652;2023-02-28T16:57:41;8.52;;;3.53;;
34836;SDS011;21053;50.848;4.652;2023-02-28T17:00:08;9.05;;;3.25;;
34836;SDS011;21053;50.848;4.652;2023-02-28T17:02:40;5.07;;;3.30;;
34836;SDS011;21053;50.848;4.652;2023-02-28T17:05:05;7.63;;;3.45;;
34836;SDS011;21053;50.848;4.652;2023-02-28T17:07:32;10.82;;;3.63;;
34836;SDS011;21053;50.848;4.652;2023-02-28T17:10:00;5.20;;;3.10;;
34836;SDS011;21053;50.848;4.652;2023-02-28T17:12:34;7.70;;;3.88;;
34836;SDS011;21053;50.848;4.652;2023-02-28T17:15:01;7.10;;;3.38;;
34836;SDS011;21053;50.848;4.652;2023-02-28T17:17:27;9.60;;;3.50;;
34836;SDS011;21053;50.848;4.652;2023-02-28T17:19:55;8.93;;;3.38;;
34836;SDS011;21053;50.848;4.652;2023-02-28T17:22:24;12.50;;;3.67;;
34836;SDS011;21053;50.848;4.652;2023-02-28T17:24:51;15.85;;;3.58;;
34836;SDS011;21053;50.848;4.652;2023-02-28T17:27:22;4.68;;;3.30;;
34836;SDS011;21053;50.848;4.652;2023-02-28T17:29:48;8.35;;;3.45;;
34836;SDS011;21053;50.848;4.652;2023-02-28T17:32:14;9.45;;;4.40;;
34836;SDS011;21053;50.848;4.652;2023-02-28T17:34:40;6.72;;;3.60;;
34836;SDS011;21053;50.848;4.652;2023-02-28T17:37:08;6.80;;;3.45;;
34836;SDS011;21053;50.848;4.652;2023-02-28T17:39:35;7.03;;;3.45;;
34836;SDS011;21053;50.848;4.652;2023-02-28T17:42:02;6.78;;;3.83;;
34836;SDS011;21053;50.848;4.652;2023-02-28T17:44:30;10.00;;;3.80;;
34836;SDS011;21053;50.848;4.652;2023-02-28T17:46:58;7.60;;;3.65;;
34836;SDS011;21053;50.848;4.652;2023-02-28T17:49:27;6.28;;;3.75;;
34836;SDS011;21053;50.848;4.652;2023-02-28T17:51:53;7.38;;;4.55;;
34836;SDS011;21053;50.848;4.652;2023-02-28T17:54:18;9.07;;;4.18;;
34836;SDS011;21053;50.848;4.652;2023-02-28T17:56:47;7.20;;;4.10;;
34836;SDS011;21053;50.848;4.652;2023-02-28T17:59:13;6.90;;;4.05;;
34836;SDS011;21053;50.848;4.652;2023-02-28T18:01:42;8.43;;;4.00;;
34836;SDS011;21053;50.848;4.652;2023-02-28T18:04:10;7.57;;;3.75;;
34836;SDS011;21053;50.848;4.652;2023-02-28T18:06:43;5.88;;;3.63;;
34836;SDS011;21053;50.848;4.652;2023-02-28T18:09:14;6.88;;;3.75;;
34836;SDS011;21053;50.848;4.652;2023-02-28T18:14:12;11.13;;;3.97;;
34836;SDS011;21053;50.848;4.652;2023-02-28T18:16:40;8.93;;;4.28;;
34836;SDS011;21053;50.848;4.652;2023-02-28T18:19:10;9.75;;;4.13;;
34836;SDS011;21053;50.848;4.652;2023-02-28T18:21:45;7.60;;;4.07;;
34836;SDS011;21053;50.848;4.652;2023-02-28T18:24:12;8.98;;;4.03;;
34836;SDS011;21053;50.848;4.652;2023-02-28T18:26:39;8.38;;;4.20;;
34836;SDS011;21053;50.848;4.652;2023-02-28T18:31:43;10.43;;;4.50;;
34836;SDS011;21053;50.848;4.652;2023-02-28T18:34:10;19.15;;;3.97;;
34836;SDS011;21053;50.848;4.652;2023-02-28T18:36:39;11.00;;;4.45;;
34836;SDS011;21053;50.848;4.652;2023-02-28T18:39:07;10.48;;;4.43;;
34836;SDS011;21053;50.848;4.652;2023-02-28T18:41:39;12.23;;;4.20;;
34836;SDS011;21053;50.848;4.652;2023-02-28T18:44:08;12.45;;;4.18;;
34836;SDS011;21053;50.848;4.652;2023-02-28T18:46:36;9.85;;;4.10;;
34836;SDS011;21053;50.848;4.652;2023-02-28T18:49:03;8.43;;;4.55;;
34836;SDS011;21053;50.848;4.652;2023-02-28T18:51:29;9.63;;;5.03;;
34836;SDS011;21053;50.848;4.652;2023-02-28T18:53:58;16.15;;;5.97;;
34836;SDS011;21053;50.848;4.652;2023-02-28T18:56:27;13.40;;;6.50;;
34836;SDS011;21053;50.848;4.652;2023-02-28T19:01:23;15.93;;;6.68;;